createdAt,value
2022-11-06T00:01:12.574Z,99.20
2022-11-06T00:03:40.487Z,99.10
2022-11-06T00:06:32.103Z,99.20
2022-11-06T00:09:00.591Z,99.30
2022-11-06T00:11:28.159Z,99.30
2022-11-06T00:13:55.158Z,99.40
2022-11-06T00:16:22.270Z,99.80
2022-11-06T00:21:21.579Z,99.90
2022-11-06T00:23:49.080Z,99.90
2022-11-06T00:26:19.940Z,99.90
2022-11-06T00:28:47.885Z,99.50
2022-11-06T00:31:18.319Z,99.60
2022-11-06T00:33:46.154Z,99.90
2022-11-06T00:36:17.364Z,99.70
2022-11-06T00:41:14.407Z,99.90
2022-11-06T00:43:42.352Z,99.80
2022-11-06T00:46:12.078Z,99.90
2022-11-06T00:48:40.758Z,99.90
2022-11-06T00:56:14.166Z,99.90
2022-11-06T01:01:13.080Z,99.70
2022-11-06T01:03:41.412Z,99.90
2022-11-06T01:06:12.543Z,99.90
2022-11-06T01:08:40.390Z,99.90
2022-11-06T01:11:46.409Z,99.90
2022-11-06T01:14:19.683Z,99.90
2022-11-06T01:16:46.870Z,99.90
2022-11-06T01:19:15.751Z,99.80
2022-11-06T01:21:44.874Z,99.80
2022-11-06T01:24:18.078Z,99.90
2022-11-06T01:27:11.984Z,99.90
2022-11-06T01:32:00.106Z,99.90
2022-11-06T01:34:27.207Z,99.90
2022-11-06T01:36:54.243Z,99.90
2022-11-06T01:39:21.304Z,99.90
2022-11-06T01:41:50.886Z,99.90
2022-11-06T01:44:36.155Z,99.90
2022-11-06T01:47:06.713Z,99.90
2022-11-06T01:49:37.772Z,99.90
2022-11-06T01:52:11.003Z,99.90
2022-11-06T01:54:40.758Z,99.90
2022-11-06T01:57:09.072Z,99.90
2022-11-06T01:59:42.549Z,99.90
2022-11-06T02:02:09.723Z,99.90
2022-11-06T02:04:39.864Z,99.90
2022-11-06T02:07:07.779Z,99.90
2022-11-06T02:09:35.608Z,99.90
2022-11-06T02:12:08.618Z,99.90
2022-11-06T02:14:48.378Z,99.90
2022-11-06T02:17:24.733Z,99.90
2022-11-06T02:20:05.268Z,99.90
2022-11-06T02:22:51.195Z,99.90
2022-11-06T02:25:39.712Z,99.90
2022-11-06T02:28:31.997Z,99.90
2022-11-06T02:31:05.447Z,99.90
2022-11-06T02:33:40.429Z,99.90
2022-11-06T02:36:15.638Z,99.90
2022-11-06T02:38:52.102Z,99.90
2022-11-06T02:41:23.781Z,99.90
2022-11-06T02:43:55.769Z,99.90
2022-11-06T02:46:28.615Z,99.90
2022-11-06T02:49:10.110Z,99.90
2022-11-06T02:51:46.175Z,99.90
2022-11-06T02:54:15.463Z,99.90
2022-11-06T02:56:46.439Z,99.90
2022-11-06T02:59:24.922Z,99.90
2022-11-06T03:02:02.459Z,99.90
2022-11-06T03:04:38.824Z,99.90
2022-11-06T03:07:11.416Z,99.90
2022-11-06T03:12:32.581Z,99.90
2022-11-06T03:15:25.747Z,99.90
2022-11-06T03:18:18.083Z,99.90
2022-11-06T03:20:59.848Z,99.90
2022-11-06T03:23:48.165Z,99.90
2022-11-06T03:28:57.037Z,99.90
2022-11-06T03:31:59.010Z,99.90
2022-11-06T03:34:48.493Z,99.90
2022-11-06T03:37:24.764Z,99.90
2022-11-06T03:39:55.500Z,99.90
2022-11-06T03:42:26.392Z,99.90
2022-11-06T03:44:59.955Z,99.90
2022-11-06T03:47:53.050Z,99.90
2022-11-06T03:50:34.531Z,99.90
2022-11-06T03:53:12.131Z,99.90
2022-11-06T03:55:45.420Z,99.90
2022-11-06T03:58:17.401Z,99.90
2022-11-06T04:00:45.389Z,99.90
2022-11-06T04:03:32.636Z,99.90
2022-11-06T04:06:30.452Z,99.90
2022-11-06T04:09:20.780Z,99.90
2022-11-06T04:12:08.131Z,99.90
2022-11-06T04:14:36.990Z,99.90
2022-11-06T04:17:11.769Z,99.90
2022-11-06T04:19:45.975Z,99.90
2022-11-06T04:22:46.746Z,99.90
2022-11-06T04:28:02.609Z,99.90
2022-11-06T04:30:42.240Z,99.90
2022-11-06T04:33:24.293Z,99.90
2022-11-06T04:38:45.568Z,99.90
2022-11-06T04:43:59.389Z,99.90
2022-11-06T04:46:29.750Z,99.90
2022-11-06T04:48:57.706Z,99.90
2022-11-06T04:51:30.090Z,99.90
2022-11-06T04:53:57.726Z,99.90
2022-11-06T04:56:34.641Z,99.90
2022-11-06T04:59:05.730Z,99.90
2022-11-06T05:11:26.182Z,99.90
2022-11-06T05:16:20.666Z,99.90
2022-11-06T05:21:33.705Z,99.90
2022-11-06T05:24:00.749Z,99.90
2022-11-06T05:26:27.741Z,99.90
2022-11-06T05:28:54.758Z,99.90
2022-11-06T05:31:21.858Z,99.90
2022-11-06T05:33:48.874Z,99.90
2022-11-06T05:36:15.950Z,99.90
2022-11-06T05:38:42.995Z,99.90
2022-11-06T05:41:09.983Z,99.90
2022-11-06T05:46:04.634Z,99.90
2022-11-06T05:48:31.696Z,99.90
2022-11-06T05:51:03.285Z,99.90
2022-11-06T05:53:32.302Z,99.90
2022-11-06T05:58:27.861Z,99.90
2022-11-06T06:00:55.532Z,99.90
2022-11-06T06:05:50.264Z,99.90
2022-11-06T06:08:18.085Z,99.90
2022-11-06T06:10:47.050Z,99.90
2022-11-06T06:13:15.093Z,99.90
2022-11-06T06:15:43.439Z,99.90
2022-11-06T06:18:11.314Z,99.90
2022-11-06T06:20:38.998Z,99.90
2022-11-06T06:25:36.832Z,99.70
2022-11-06T06:28:04.098Z,99.70
2022-11-06T06:30:31.571Z,99.90
2022-11-06T06:33:05.614Z,99.80
2022-11-06T06:35:33.429Z,99.50
2022-11-06T06:38:00.777Z,99.70
2022-11-06T06:42:59.739Z,99.30
2022-11-06T06:45:27.262Z,99.40
2022-11-06T06:50:21.735Z,99.40
2022-11-06T06:52:48.815Z,99.60
2022-11-06T06:55:15.903Z,99.70
2022-11-06T07:00:10.943Z,99.90
2022-11-06T07:02:38.067Z,99.90
2022-11-06T07:05:05.355Z,99.90
2022-11-06T07:07:32.720Z,99.90
2022-11-06T07:09:59.697Z,99.90
2022-11-06T07:19:49.077Z,99.90
2022-11-06T07:24:43.567Z,99.90
2022-11-06T07:27:10.637Z,99.90
2022-11-06T07:32:09.116Z,99.90
2022-11-06T07:34:38.941Z,99.90
2022-11-06T07:37:07.802Z,99.90
2022-11-06T07:39:34.960Z,99.90
2022-11-06T07:44:35.713Z,99.90
2022-11-06T07:47:02.876Z,99.90
2022-11-06T07:54:24.973Z,99.90
2022-11-06T08:01:47.007Z,99.90
2022-11-06T08:04:14.094Z,99.60
2022-11-06T08:06:41.076Z,99.90
2022-11-06T08:09:09.380Z,99.90
2022-11-06T08:18:59.166Z,99.90
2022-11-06T08:21:26.196Z,99.90
2022-11-06T08:26:20.649Z,99.90
2022-11-06T08:36:10.494Z,99.90
2022-11-06T08:38:37.664Z,99.90
2022-11-06T08:41:10.305Z,99.90
2022-11-06T08:43:38.148Z,99.90
2022-11-06T08:46:06.799Z,99.90
2022-11-06T08:48:34.176Z,99.90
2022-11-06T08:51:01.579Z,99.90
2022-11-06T08:53:28.720Z,99.90
2022-11-06T08:55:55.828Z,99.90
2022-11-06T09:03:20.539Z,99.90
2022-11-06T09:05:47.832Z,99.90
2022-11-06T09:08:16.567Z,99.90
2022-11-06T09:10:44.425Z,99.90
2022-11-06T09:13:12.785Z,99.90
2022-11-06T09:15:40.192Z,99.90
2022-11-06T09:18:08.032Z,99.90
2022-11-06T09:23:04.814Z,99.90
2022-11-06T09:25:31.901Z,99.90
2022-11-06T09:27:59.926Z,99.90
2022-11-06T09:30:30.116Z,99.90
2022-11-06T09:33:21.164Z,99.90
2022-11-06T09:35:48.408Z,99.90
2022-11-06T09:38:19.205Z,99.90
2022-11-06T09:41:25.005Z,99.90
2022-11-06T09:44:27.947Z,99.90
2022-11-06T09:47:30.592Z,99.90
2022-11-06T09:50:57.335Z,99.90
2022-11-06T09:58:01.072Z,99.90
2022-11-06T10:04:23.231Z,99.90
2022-11-06T10:10:42.846Z,99.90
2022-11-06T10:14:14.004Z,99.70
2022-11-06T10:17:37.141Z,99.40
2022-11-06T10:20:49.506Z,99.10
2022-11-06T10:24:08.628Z,99.20
2022-11-06T10:27:07.822Z,99.10
2022-11-06T10:34:00.528Z,98.80
2022-11-06T10:37:27.956Z,98.80
2022-11-06T10:40:14.551Z,98.70
2022-11-06T10:42:43.176Z,98.80
2022-11-06T10:45:40.053Z,98.40
2022-11-06T10:48:39.993Z,98.40
2022-11-06T10:51:36.531Z,98.30
2022-11-06T10:54:31.179Z,98.30
2022-11-06T10:56:58.231Z,98.20
2022-11-06T10:59:51.636Z,97.90
2022-11-06T11:03:30.823Z,97.50
2022-11-06T11:06:24.463Z,96.70
2022-11-06T11:09:34.015Z,96.80
2022-11-06T11:12:01.184Z,97.00
2022-11-06T11:14:31.372Z,97.30
2022-11-06T11:17:01.055Z,97.60
2022-11-06T11:19:44.508Z,97.60
2022-11-06T11:22:34.826Z,97.50
2022-11-06T11:26:01.019Z,97.50
2022-11-06T11:28:51.696Z,97.30
2022-11-06T11:32:19.634Z,97.20
2022-11-06T11:39:19.894Z,97.40
2022-11-06T11:42:49.875Z,97.10
2022-11-06T11:49:51.902Z,96.70
2022-11-06T11:53:02.287Z,96.50
2022-11-06T11:55:53.167Z,96.70
2022-11-06T11:58:46.850Z,96.70
2022-11-06T12:01:59.688Z,96.40
2022-11-06T12:04:57.244Z,96.60
2022-11-06T12:07:57.035Z,96.70
2022-11-06T12:12:00.659Z,96.20
2022-11-06T12:15:20.778Z,95.90
2022-11-06T12:18:35.926Z,95.30
2022-11-06T12:22:13.157Z,95.10
2022-11-06T12:25:26.184Z,95.40
2022-11-06T12:32:15.944Z,94.10
2022-11-06T12:35:32.452Z,93.00
2022-11-06T12:39:02.878Z,92.80
2022-11-06T12:41:52.044Z,92.60
2022-11-06T12:44:31.175Z,92.80
2022-11-06T12:47:56.490Z,92.50
2022-11-06T12:51:12.183Z,92.50
2022-11-06T12:58:20.524Z,92.50
2022-11-06T13:01:07.437Z,92.70
2022-11-06T13:04:28.031Z,92.70
2022-11-06T13:14:53.315Z,91.90
2022-11-06T13:17:53.930Z,92.00
2022-11-06T13:24:02.779Z,91.20
2022-11-06T13:30:41.215Z,91.00
2022-11-06T13:34:12.782Z,91.10
2022-11-06T13:37:09.588Z,91.30
2022-11-06T13:40:08.384Z,90.50
2022-11-06T13:43:06.293Z,90.70
2022-11-06T13:45:55.948Z,90.50
2022-11-06T13:49:19.128Z,90.10
2022-11-06T13:52:04.610Z,90.00
2022-11-06T13:55:10.244Z,89.30
2022-11-06T13:58:20.271Z,88.50
2022-11-06T14:01:26.424Z,88.70
2022-11-06T14:04:42.521Z,88.70
2022-11-06T14:07:36.327Z,87.40
2022-11-06T14:10:45.031Z,92.00
2022-11-06T14:13:51.538Z,91.60
2022-11-06T14:19:55.580Z,93.60
2022-11-06T14:22:49.660Z,93.80
2022-11-06T14:25:46.199Z,93.70
2022-11-06T14:29:13.312Z,93.60
2022-11-06T14:32:34.257Z,93.70
2022-11-06T14:35:50.863Z,93.60
2022-11-06T14:38:49.881Z,94.00
2022-11-06T14:41:40.660Z,93.90
2022-11-06T14:44:34.109Z,93.80
2022-11-06T14:47:31.498Z,93.80
2022-11-06T14:54:43.066Z,93.90
2022-11-06T14:57:45.793Z,94.00
2022-11-06T15:01:01.480Z,94.20
2022-11-06T15:04:31.853Z,94.20
2022-11-06T15:07:07.261Z,94.30
2022-11-06T15:10:19.480Z,94.40
2022-11-06T15:13:17.990Z,94.50
2022-11-06T15:16:26.640Z,94.70
2022-11-06T15:23:14.358Z,94.90
2022-11-06T15:26:22.444Z,95.00
2022-11-06T15:29:39.767Z,94.60
2022-11-06T15:32:16.798Z,94.20
2022-11-06T15:35:02.205Z,94.30
2022-11-06T15:37:39.033Z,94.30
2022-11-06T15:40:06.954Z,94.20
2022-11-06T15:42:37.310Z,94.10
2022-11-06T15:45:16.369Z,94.10
2022-11-06T15:48:01.622Z,94.00
2022-11-06T15:50:33.480Z,94.20
2022-11-06T15:53:16.053Z,94.40
2022-11-06T15:55:52.865Z,94.10
2022-11-06T15:58:19.976Z,93.80
2022-11-06T16:00:47.620Z,93.70
2022-11-06T16:03:23.050Z,93.80
2022-11-06T16:05:51.097Z,93.90
2022-11-06T16:08:20.339Z,93.80
2022-11-06T16:10:48.527Z,93.90
2022-11-06T16:13:19.147Z,93.30
2022-11-06T16:15:53.931Z,93.50
2022-11-06T16:18:40.942Z,93.30
2022-11-06T16:21:20.751Z,93.20
2022-11-06T16:23:52.991Z,93.20
2022-11-06T16:26:44.073Z,93.10
2022-11-06T16:29:29.174Z,93.20
2022-11-06T16:32:19.259Z,93.00
2022-11-06T16:34:47.873Z,92.90
2022-11-06T16:37:17.586Z,93.20
2022-11-06T16:39:54.389Z,93.10
2022-11-06T16:42:30.558Z,93.20
2022-11-06T16:45:19.702Z,92.90
2022-11-06T16:48:08.674Z,93.10
2022-11-06T16:50:46.835Z,93.20
2022-11-06T16:53:20.509Z,93.40
2022-11-06T16:55:57.659Z,93.50
2022-11-06T16:58:25.206Z,93.60
2022-11-06T17:01:06.547Z,93.50
2022-11-06T17:03:47.199Z,93.50
2022-11-06T17:06:25.733Z,93.50
2022-11-06T17:09:23.795Z,93.60
2022-11-06T17:11:58.982Z,93.60
2022-11-06T17:14:26.479Z,93.70
2022-11-06T17:16:59.269Z,93.80
2022-11-06T17:19:27.733Z,93.90
2022-11-06T17:21:55.657Z,93.90
2022-11-06T17:24:38.394Z,93.90
2022-11-06T17:27:06.436Z,93.90
2022-11-06T17:29:36.430Z,94.10
2022-11-06T17:32:04.424Z,94.10
2022-11-06T17:34:31.490Z,94.20
2022-11-06T17:36:58.645Z,94.30
2022-11-06T17:39:26.311Z,94.60
2022-11-06T17:41:54.586Z,94.40
2022-11-06T17:44:23.272Z,94.60
2022-11-06T17:46:50.753Z,94.60
2022-11-06T17:49:18.748Z,94.60
2022-11-06T17:52:02.563Z,94.40
2022-11-06T17:54:32.746Z,94.60
2022-11-06T17:57:01.984Z,94.70
2022-11-06T17:59:29.111Z,94.70
2022-11-06T18:01:57.823Z,94.80
2022-11-06T18:04:27.245Z,94.60
2022-11-06T18:06:55.090Z,94.80
2022-11-06T18:09:23.076Z,94.90
2022-11-06T18:11:51.791Z,95.00
2022-11-06T18:14:19.831Z,95.00
2022-11-06T18:16:46.987Z,95.00
2022-11-06T18:19:17.202Z,95.00
2022-11-06T18:21:44.253Z,95.00
2022-11-06T18:24:11.356Z,95.10
2022-11-06T18:26:38.483Z,95.10
2022-11-06T18:29:06.942Z,95.10
2022-11-06T18:31:34.370Z,95.20
2022-11-06T18:34:02.227Z,95.40
2022-11-06T18:36:29.344Z,95.40
2022-11-06T18:38:56.326Z,95.50
2022-11-06T18:41:23.553Z,95.30
2022-11-06T18:43:57.201Z,95.30
2022-11-06T18:46:26.766Z,95.30
2022-11-06T18:48:55.246Z,95.30
2022-11-06T18:51:34.568Z,95.30
2022-11-06T18:54:05.112Z,95.30
2022-11-06T18:56:33.151Z,95.30
2022-11-06T19:01:28.704Z,95.20
2022-11-06T19:06:23.392Z,94.80
2022-11-06T19:08:50.527Z,94.90
2022-11-06T19:11:20.293Z,95.00
2022-11-06T19:13:48.536Z,95.00
2022-11-06T19:16:18.598Z,95.00
2022-11-06T19:18:46.125Z,94.90
2022-11-06T19:21:15.548Z,95.00
2022-11-06T19:23:44.750Z,95.30
2022-11-06T19:26:31.865Z,95.50
2022-11-06T19:29:00.419Z,95.60
2022-11-06T19:31:29.136Z,95.90
2022-11-06T19:33:58.308Z,96.20
2022-11-06T19:38:56.412Z,96.60
2022-11-06T19:41:24.757Z,97.10
2022-11-06T19:43:52.068Z,97.40
2022-11-06T19:46:25.024Z,97.70
2022-11-06T19:48:54.658Z,97.90
2022-11-06T19:51:21.872Z,98.40
2022-11-06T19:53:53.366Z,98.50
2022-11-06T19:56:21.848Z,98.80
2022-11-06T19:58:50.312Z,98.80
2022-11-06T20:01:17.920Z,98.90
2022-11-06T20:03:45.265Z,99.00
2022-11-06T20:08:40.885Z,99.10
2022-11-06T20:11:12.643Z,99.40
2022-11-06T20:13:43.867Z,99.50
2022-11-06T20:16:13.992Z,99.30
2022-11-06T20:18:41.162Z,99.20
2022-11-06T20:21:10.735Z,99.00
2022-11-06T20:23:38.541Z,99.20
2022-11-06T20:26:06.020Z,99.00
2022-11-06T20:28:33.303Z,98.90
2022-11-06T20:31:04.445Z,98.90
2022-11-06T20:33:31.781Z,98.90
2022-11-06T20:35:59.054Z,98.50
2022-11-06T20:40:57.136Z,98.30
2022-11-06T20:43:24.368Z,98.40
2022-11-06T20:45:51.522Z,98.40
2022-11-06T20:51:01.174Z,98.00
2022-11-06T20:53:28.529Z,98.30
2022-11-06T20:55:57.712Z,98.10
2022-11-06T20:58:36.658Z,97.70
2022-11-06T21:01:21.211Z,98.10
2022-11-06T21:03:55.123Z,97.90
2022-11-06T21:06:27.081Z,98.00
2022-11-06T21:09:05.503Z,98.20
2022-11-06T21:11:53.059Z,98.20
2022-11-06T21:14:22.165Z,98.10
2022-11-06T21:16:51.425Z,98.20
2022-11-06T21:19:20.053Z,98.20
2022-11-06T21:21:49.078Z,98.20
2022-11-06T21:24:22.444Z,98.20
2022-11-06T21:26:56.032Z,98.20
2022-11-06T21:29:48.064Z,98.20
2022-11-06T21:32:15.947Z,98.20
2022-11-06T21:34:44.784Z,98.30
2022-11-06T21:37:18.457Z,98.40
2022-11-06T21:39:48.613Z,98.10
2022-11-06T21:42:16.569Z,98.30
2022-11-06T21:44:44.515Z,98.20
2022-11-06T21:47:12.407Z,98.40
2022-11-06T21:49:41.106Z,98.30
2022-11-06T21:52:29.372Z,98.50
2022-11-06T21:55:16.053Z,98.40
2022-11-06T21:57:45.603Z,98.50
2022-11-06T22:00:15.056Z,98.50
2022-11-06T22:02:44.133Z,98.50
2022-11-06T22:05:14.361Z,98.50
2022-11-06T22:07:42.708Z,98.50
2022-11-06T22:10:11.995Z,98.50
2022-11-06T22:12:41.406Z,98.60
2022-11-06T22:15:11.483Z,98.30
2022-11-06T22:17:44.778Z,98.30
2022-11-06T22:20:24.788Z,98.30
2022-11-06T22:22:54.535Z,98.20
2022-11-06T22:25:27.116Z,98.20
2022-11-06T22:27:56.110Z,98.10
2022-11-06T22:30:24.689Z,98.20
2022-11-06T22:32:54.192Z,98.30
2022-11-06T22:35:25.437Z,98.30
2022-11-06T22:37:56.306Z,98.40
2022-11-06T22:40:26.374Z,98.50
2022-11-06T22:42:55.364Z,98.50
2022-11-06T22:45:23.136Z,98.40
2022-11-06T22:50:17.774Z,98.10
2022-11-06T22:52:44.823Z,98.20
2022-11-06T22:55:11.805Z,98.20
2022-11-06T22:57:38.825Z,98.20
2022-11-06T23:00:06.940Z,98.30
2022-11-06T23:02:34.752Z,98.10
2022-11-06T23:05:01.762Z,97.70
2022-11-06T23:07:28.944Z,98.00
2022-11-06T23:09:56.006Z,98.00
2022-11-06T23:12:23.010Z,98.00
2022-11-06T23:14:50.079Z,97.90
2022-11-06T23:17:17.107Z,98.00
2022-11-06T23:19:44.189Z,97.80
2022-11-06T23:22:29.871Z,97.80
2022-11-06T23:24:56.885Z,97.70
2022-11-06T23:27:24.691Z,97.80
2022-11-06T23:32:19.381Z,97.60
2022-11-06T23:37:13.798Z,97.50
2022-11-06T23:42:08.234Z,97.70
2022-11-06T23:44:53.751Z,98.00
2022-11-06T23:47:20.782Z,97.90
2022-11-06T23:49:47.931Z,98.00
2022-11-06T23:52:14.983Z,98.10
2022-11-06T23:57:09.868Z,97.80
2022-11-06T23:59:37.051Z,98.00
